JUST62 YSHW-YSHW
Flight info
| Callsign | JUST62 |
|---|---|
| Flight time | 1h 17m |
| Altitude | 1000 |
| Route | SUD JIBN SYHD HBB |
| Aircraft | H60/L-SDFGIR/S |
Departure
| Time | 2026-04-12 04:52 |
|---|---|
| Airport | Holsworthy (Military) Airport (YSHW) |
Arrival
| Time | 2026-04-12 06:10 |
|---|---|
| Airport | Holsworthy (Military) Airport (YSHW) |
| Time | Latitude | Longitude | Altitude | Speed | Heading |
|---|---|---|---|---|---|
| 2026-04-12 04:07 | -33.99452 | 150.95214 | 248 ft | 0 kts | 122° |
| 2026-04-12 04:47 | -33.99455 | 150.95221 | 246 ft | 2 kts | 123° |
| 2026-04-12 04:48 | -33.99476 | 150.95231 | 249 ft | 5 kts | 213° |
| 2026-04-12 04:48 | -33.99489 | 150.95227 | 250 ft | 4 kts | 162° |
| 2026-04-12 04:48 | -33.99508 | 150.95256 | 250 ft | 5 kts | 123° |
| 2026-04-12 04:49 | -33.99529 | 150.95295 | 250 ft | 6 kts | 121° |
| 2026-04-12 04:49 | -33.99555 | 150.95342 | 249 ft | 8 kts | 124° |
| 2026-04-12 04:49 | -33.99595 | 150.95370 | 249 ft | 4 kts | 218° |
| 2026-04-12 04:49 | -33.99598 | 150.95368 | 248 ft | 3 kts | 215° |
| 2026-04-12 04:50 | -33.99628 | 150.95330 | 249 ft | 8 kts | 277° |
| 2026-04-12 04:50 | -33.99622 | 150.95314 | 249 ft | 0 kts | 306° |
| 2026-04-12 04:50 | -33.99619 | 150.95312 | 252 ft | 4 kts | 297° |
| 2026-04-12 04:51 | -33.99557 | 150.95204 | 295 ft | 27 kts | 299° |
| 2026-04-12 04:51 | -33.99505 | 150.95111 | 346 ft | 43 kts | 292° |
| 2026-04-12 04:51 | -33.99310 | 150.94751 | 459 ft | 84 kts | 291° |
| 2026-04-12 04:51 | -33.99523 | 150.94147 | 422 ft | 97 kts | 208° |
| 2026-04-12 04:52 | -34.00232 | 150.94667 | 662 ft | 148 kts | 137° |
| 2026-04-12 04:52 | -34.00798 | 150.95855 | 713 ft | 180 kts | 112° |
| 2026-04-12 04:52 | -34.01140 | 150.97248 | 681 ft | 164 kts | 109° |
| 2026-04-12 04:52 | -34.01387 | 150.98572 | 699 ft | 167 kts | 105° |
| 2026-04-12 04:53 | -34.01676 | 150.99911 | 662 ft | 152 kts | 122° |
| 2026-04-12 04:53 | -34.02079 | 151.01063 | 700 ft | 150 kts | 122° |
| 2026-04-12 04:53 | -34.02872 | 151.03444 | 639 ft | 153 kts | 118° |
| 2026-04-12 04:54 | -34.03238 | 151.04622 | 687 ft | 142 kts | 125° |
| 2026-04-12 04:54 | -34.03829 | 151.05541 | 705 ft | 137 kts | 142° |
| 2026-04-12 04:54 | -34.04251 | 151.06580 | 766 ft | 141 kts | 126° |
| 2026-04-12 04:54 | -34.04740 | 151.07642 | 801 ft | 151 kts | 121° |
| 2026-04-12 04:55 | -34.05133 | 151.08721 | 641 ft | 129 kts | 121° |
| 2026-04-12 04:55 | -34.05221 | 151.08970 | 654 ft | 127 kts | 121° |
| 2026-04-12 04:56 | -34.05273 | 151.09117 | 651 ft | 128 kts | 121° |
| 2026-04-12 04:57 | -34.05644 | 151.10115 | 607 ft | 137 kts | 121° |
| 2026-04-12 04:57 | -34.06053 | 151.11080 | 604 ft | 143 kts | 129° |
| 2026-04-12 04:58 | -34.06054 | 151.11082 | 604 ft | 143 kts | 129° |
| 2026-04-12 04:58 | -34.06563 | 151.12147 | 589 ft | 151 kts | 126° |
| 2026-04-12 04:58 | -34.07036 | 151.13295 | 480 ft | 153 kts | 121° |
| 2026-04-12 04:58 | -34.07456 | 151.14429 | 447 ft | 143 kts | 118° |
| 2026-04-12 04:59 | -34.07866 | 151.15501 | 411 ft | 138 kts | 124° |
| 2026-04-12 04:59 | -34.07987 | 151.15787 | 411 ft | 135 kts | 124° |
| 2026-04-12 04:59 | -34.08177 | 151.16616 | 471 ft | 128 kts | 87° |
| 2026-04-12 04:59 | -34.07743 | 151.17538 | 465 ft | 129 kts | 54° |
| 2026-04-12 05:00 | -34.07163 | 151.18492 | 457 ft | 150 kts | 51° |
| 2026-04-12 05:00 | -34.06709 | 151.19162 | 423 ft | 154 kts | 47° |
| 2026-04-12 05:01 | -34.06426 | 151.19568 | 408 ft | 153 kts | 47° |
| 2026-04-12 05:01 | -34.05741 | 151.20589 | 445 ft | 160 kts | 48° |
| 2026-04-12 05:02 | -34.05244 | 151.21322 | 457 ft | 156 kts | 45° |
| 2026-04-12 05:02 | -34.05055 | 151.21571 | 467 ft | 155 kts | 43° |
| 2026-04-12 05:02 | -34.04259 | 151.22405 | 482 ft | 147 kts | 36° |
| 2026-04-12 05:03 | -34.03441 | 151.23160 | 456 ft | 147 kts | 34° |
| 2026-04-12 05:03 | -34.02621 | 151.23884 | 468 ft | 149 kts | 30° |
| 2026-04-12 05:03 | -34.01755 | 151.24557 | 442 ft | 145 kts | 27° |
| 2026-04-12 05:03 | -34.00894 | 151.25167 | 504 ft | 142 kts | 24° |
| 2026-04-12 05:04 | -34.00016 | 151.25690 | 526 ft | 138 kts | 19° |
| 2026-04-12 05:04 | -33.99098 | 151.26120 | 457 ft | 148 kts | 13° |
| 2026-04-12 05:04 | -33.98148 | 151.26504 | 495 ft | 148 kts | 13° |
| 2026-04-12 05:04 | -33.97122 | 151.26896 | 480 ft | 163 kts | 12° |
| 2026-04-12 05:05 | -33.96069 | 151.27302 | 469 ft | 155 kts | 11° |
| 2026-04-12 05:05 | -33.95050 | 151.27667 | 477 ft | 151 kts | 13° |
| 2026-04-12 05:05 | -33.94040 | 151.28041 | 443 ft | 150 kts | 9° |
| 2026-04-12 05:05 | -33.93047 | 151.28386 | 462 ft | 149 kts | 9° |
| 2026-04-12 05:06 | -33.92403 | 151.28616 | 471 ft | 147 kts | 11° |
| 2026-04-12 05:07 | -33.91477 | 151.28927 | 473 ft | 146 kts | 6° |
| 2026-04-12 05:07 | -33.90498 | 151.29217 | 497 ft | 147 kts | 6° |
| 2026-04-12 05:07 | -33.89498 | 151.29439 | 508 ft | 147 kts | 2° |
| 2026-04-12 05:08 | -33.88480 | 151.29597 | 516 ft | 147 kts | 358° |
| 2026-04-12 05:08 | -33.87468 | 151.29637 | 572 ft | 146 kts | 353° |
| 2026-04-12 05:08 | -33.86457 | 151.29631 | 477 ft | 147 kts | 353° |
| 2026-04-12 05:08 | -33.85419 | 151.29564 | 461 ft | 150 kts | 350° |
| 2026-04-12 05:09 | -33.84400 | 151.29411 | 427 ft | 142 kts | 337° |
| 2026-04-12 05:09 | -33.83634 | 151.28844 | 393 ft | 127 kts | 308° |
| 2026-04-12 05:09 | -33.83301 | 151.28190 | 412 ft | 115 kts | 278° |
| 2026-04-12 05:10 | -33.83401 | 151.27652 | 434 ft | 112 kts | 240° |
| 2026-04-12 05:10 | -33.84012 | 151.26934 | 438 ft | 130 kts | 226° |
| 2026-04-12 05:11 | -33.84649 | 151.26226 | 469 ft | 120 kts | 227° |
| 2026-04-12 05:11 | -33.85166 | 151.25506 | 502 ft | 112 kts | 238° |
| 2026-04-12 05:11 | -33.85417 | 151.24633 | 389 ft | 109 kts | 263° |
| 2026-04-12 05:11 | -33.85399 | 151.23765 | 419 ft | 92 kts | 250° |
| 2026-04-12 05:12 | -33.85787 | 151.23442 | 478 ft | 55 kts | 213° |
| 2026-04-12 05:12 | -33.85993 | 151.23353 | 329 ft | 3 kts | 168° |
| 2026-04-12 05:12 | -33.85981 | 151.23358 | 293 ft | 15 kts | 169° |
| 2026-04-12 05:12 | -33.86037 | 151.23384 | 302 ft | 8 kts | 170° |
| 2026-04-12 05:13 | -33.86010 | 151.23382 | 270 ft | 4 kts | 167° |
| 2026-04-12 05:13 | -33.86020 | 151.23382 | 212 ft | 1 kts | 169° |
| 2026-04-12 05:14 | -33.86020 | 151.23388 | 213 ft | 1 kts | 173° |
| 2026-04-12 05:15 | -33.86020 | 151.23389 | 219 ft | 1 kts | 176° |
| 2026-04-12 05:15 | -33.86026 | 151.23384 | 207 ft | 2 kts | 172° |
| 2026-04-12 05:15 | -33.86027 | 151.23391 | 204 ft | 2 kts | 182° |
| 2026-04-12 05:15 | -33.86028 | 151.23381 | 219 ft | 4 kts | 169° |
| 2026-04-12 05:16 | -33.86021 | 151.23393 | 241 ft | 2 kts | 183° |
| 2026-04-12 05:16 | -33.86027 | 151.23395 | 246 ft | 2 kts | 177° |
| 2026-04-12 05:19 | -33.86045 | 151.23405 | 249 ft | 8 kts | 175° |
| 2026-04-12 05:19 | -33.86086 | 151.23734 | 288 ft | 91 kts | 87° |
| 2026-04-12 05:20 | -33.85477 | 151.24086 | 410 ft | 103 kts | 324° |
| 2026-04-12 05:20 | -33.85319 | 151.23772 | 481 ft | 97 kts | 274° |
| 2026-04-12 05:20 | -33.85335 | 151.23426 | 509 ft | 117 kts | 263° |
| 2026-04-12 05:20 | -33.85471 | 151.22371 | 307 ft | 126 kts | 261° |
| 2026-04-12 05:21 | -33.85502 | 151.21352 | 214 ft | 113 kts | 266° |
| 2026-04-12 05:21 | -33.85501 | 151.21169 | 263 ft | 109 kts | 268° |
| 2026-04-12 05:22 | -33.85498 | 151.21057 | 295 ft | 113 kts | 267° |
| 2026-04-12 05:22 | -33.85367 | 151.20418 | 302 ft | 124 kts | 294° |
| 2026-04-12 05:22 | -33.84857 | 151.19503 | 242 ft | 131 kts | 288° |
| 2026-04-12 05:23 | -33.84570 | 151.18620 | 230 ft | 109 kts | 279° |
| 2026-04-12 05:23 | -33.84477 | 151.17767 | 262 ft | 105 kts | 269° |
| 2026-04-12 05:23 | -33.84469 | 151.17607 | 260 ft | 108 kts | 268° |
| 2026-04-12 05:23 | -33.84480 | 151.16806 | 239 ft | 117 kts | 264° |
| 2026-04-12 05:24 | -33.84310 | 151.15831 | 195 ft | 125 kts | 294° |
| 2026-04-12 05:24 | -33.84147 | 151.14938 | 193 ft | 105 kts | 251° |
| 2026-04-12 05:25 | -33.84192 | 151.14791 | 321 ft | 99 kts | 248° |
| 2026-04-12 05:25 | -33.84454 | 151.13885 | 429 ft | 117 kts | 258° |
| 2026-04-12 05:25 | -33.84306 | 151.12899 | 434 ft | 126 kts | 287° |
| 2026-04-12 05:26 | -33.83916 | 151.11943 | 374 ft | 126 kts | 289° |
| 2026-04-12 05:26 | -33.83567 | 151.11081 | 410 ft | 113 kts | 290° |
| 2026-04-12 05:26 | -33.83089 | 151.10318 | 361 ft | 119 kts | 305° |
| 2026-04-12 05:26 | -33.82445 | 151.09679 | 353 ft | 124 kts | 309° |
| 2026-04-12 05:27 | -33.82135 | 151.08883 | 457 ft | 108 kts | 264° |
| 2026-04-12 05:27 | -33.82539 | 151.08092 | 446 ft | 115 kts | 225° |
| 2026-04-12 05:27 | -33.83178 | 151.07444 | 450 ft | 122 kts | 225° |
| 2026-04-12 05:27 | -33.83796 | 151.06779 | 447 ft | 120 kts | 223° |
| 2026-04-12 05:28 | -33.84473 | 151.06167 | 423 ft | 124 kts | 222° |
| 2026-04-12 05:28 | -33.84476 | 151.06164 | 426 ft | 124 kts | 222° |
| 2026-04-12 05:29 | -33.84955 | 151.05784 | 491 ft | 117 kts | 219° |
| 2026-04-12 05:29 | -33.85181 | 151.04966 | 534 ft | 118 kts | 287° |
| 2026-04-12 05:29 | -33.84513 | 151.04264 | 604 ft | 133 kts | 314° |
| 2026-04-12 05:29 | -33.83842 | 151.03449 | 531 ft | 132 kts | 305° |
| 2026-04-12 05:30 | -33.83301 | 151.02685 | 505 ft | 118 kts | 301° |
| 2026-04-12 05:30 | -33.82720 | 151.02067 | 490 ft | 115 kts | 335° |
| 2026-04-12 05:30 | -33.81902 | 151.02358 | 459 ft | 129 kts | 41° |
| 2026-04-12 05:30 | -33.81810 | 151.03267 | 577 ft | 109 kts | 132° |
| 2026-04-12 05:31 | -33.82423 | 151.03474 | 619 ft | 93 kts | 213° |
| 2026-04-12 05:31 | -33.82594 | 151.02812 | 528 ft | 97 kts | 287° |
| 2026-04-12 05:31 | -33.81960 | 151.02543 | 460 ft | 117 kts | 26° |
| 2026-04-12 05:31 | -33.81828 | 151.03521 | 465 ft | 125 kts | 115° |
| 2026-04-12 05:32 | -33.82050 | 151.04523 | 434 ft | 128 kts | 101° |
| 2026-04-12 05:32 | -33.82082 | 151.05566 | 585 ft | 126 kts | 94° |
| 2026-04-12 05:32 | -33.82081 | 151.05653 | 596 ft | 127 kts | 94° |
| 2026-04-12 05:33 | -33.82080 | 151.05888 | 605 ft | 131 kts | 94° |
| 2026-04-12 05:33 | -33.82091 | 151.07065 | 604 ft | 151 kts | 95° |
| 2026-04-12 05:33 | -33.82142 | 151.08368 | 551 ft | 156 kts | 103° |
| 2026-04-12 05:33 | -33.82556 | 151.09547 | 461 ft | 148 kts | 137° |
| 2026-04-12 05:34 | -33.83170 | 151.10432 | 472 ft | 138 kts | 142° |
| 2026-04-12 05:34 | -33.83290 | 151.10595 | 470 ft | 142 kts | 139° |
| 2026-04-12 05:36 | -33.83799 | 151.11440 | 404 ft | 153 kts | 127° |
| 2026-04-12 05:36 | -33.84207 | 151.12619 | 392 ft | 152 kts | 110° |
| 2026-04-12 05:36 | -33.84285 | 151.13930 | 413 ft | 160 kts | 98° |
| 2026-04-12 05:37 | -33.84430 | 151.15231 | 433 ft | 157 kts | 105° |
| 2026-04-12 05:37 | -33.84617 | 151.16496 | 404 ft | 152 kts | 107° |
| 2026-04-12 05:37 | -33.84858 | 151.17711 | 537 ft | 154 kts | 110° |
| 2026-04-12 05:37 | -33.85134 | 151.18951 | 519 ft | 155 kts | 112° |
| 2026-04-12 05:38 | -33.85404 | 151.20230 | 475 ft | 160 kts | 106° |
| 2026-04-12 05:38 | -33.85532 | 151.21534 | 452 ft | 154 kts | 97° |
| 2026-04-12 05:38 | -33.85552 | 151.21885 | 463 ft | 153 kts | 99° |
| 2026-04-12 05:39 | -33.85599 | 151.22843 | 463 ft | 154 kts | 99° |
| 2026-04-12 05:39 | -33.85615 | 151.24161 | 452 ft | 163 kts | 86° |
| 2026-04-12 05:40 | -33.85118 | 151.25349 | 400 ft | 161 kts | 49° |
| 2026-04-12 05:40 | -33.84393 | 151.26350 | 389 ft | 159 kts | 45° |
| 2026-04-12 05:40 | -33.83628 | 151.27331 | 371 ft | 160 kts | 43° |
| 2026-04-12 05:40 | -33.83210 | 151.28066 | 392 ft | 147 kts | 75° |
| 2026-04-12 05:41 | -33.83184 | 151.28463 | 415 ft | 136 kts | 104° |
| 2026-04-12 05:41 | -33.83748 | 151.29086 | 457 ft | 109 kts | 186° |
| 2026-04-12 05:41 | -33.84621 | 151.29131 | 488 ft | 138 kts | 188° |
| 2026-04-12 05:42 | -33.85617 | 151.29165 | 455 ft | 142 kts | 185° |
| 2026-04-12 05:42 | -33.86513 | 151.29206 | 417 ft | 124 kts | 189° |
| 2026-04-12 05:42 | -33.86941 | 151.29241 | 404 ft | 118 kts | 187° |
| 2026-04-12 05:43 | -33.87587 | 151.29247 | 438 ft | 121 kts | 195° |
| 2026-04-12 05:43 | -33.88278 | 151.29123 | 411 ft | 130 kts | 198° |
| 2026-04-12 05:44 | -33.88512 | 151.29074 | 425 ft | 130 kts | 198° |
| 2026-04-12 05:44 | -33.89065 | 151.28955 | 412 ft | 135 kts | 197° |
| 2026-04-12 05:44 | -33.89194 | 151.28927 | 418 ft | 133 kts | 198° |
| 2026-04-12 05:45 | -33.90120 | 151.28742 | 441 ft | 140 kts | 198° |
| 2026-04-12 05:45 | -33.91036 | 151.28642 | 415 ft | 124 kts | 195° |
| 2026-04-12 05:45 | -33.91879 | 151.28528 | 422 ft | 122 kts | 198° |
| 2026-04-12 05:45 | -33.92690 | 151.28363 | 456 ft | 115 kts | 199° |
| 2026-04-12 05:46 | -33.93473 | 151.28146 | 484 ft | 118 kts | 201° |
| 2026-04-12 05:46 | -33.93782 | 151.28070 | 488 ft | 117 kts | 200° |
| 2026-04-12 05:48 | -33.94186 | 151.27963 | 482 ft | 115 kts | 204° |
| 2026-04-12 05:48 | -33.94948 | 151.27726 | 470 ft | 116 kts | 204° |
| 2026-04-12 05:48 | -33.95396 | 151.27577 | 476 ft | 120 kts | 202° |
| 2026-04-12 05:50 | -33.95820 | 151.27431 | 463 ft | 123 kts | 203° |
| 2026-04-12 05:50 | -33.96631 | 151.27114 | 463 ft | 119 kts | 206° |
| 2026-04-12 05:50 | -33.97425 | 151.26756 | 489 ft | 127 kts | 208° |
| 2026-04-12 05:51 | -33.98241 | 151.26366 | 484 ft | 131 kts | 208° |
| 2026-04-12 05:51 | -33.99087 | 151.25944 | 514 ft | 131 kts | 208° |
| 2026-04-12 05:51 | -33.99858 | 151.25421 | 571 ft | 123 kts | 219° |
| 2026-04-12 05:51 | -34.00606 | 151.24902 | 554 ft | 124 kts | 209° |
| 2026-04-12 05:52 | -34.01399 | 151.24514 | 552 ft | 124 kts | 208° |
| 2026-04-12 05:52 | -34.01729 | 151.24353 | 553 ft | 124 kts | 207° |
| 2026-04-12 05:53 | -34.02169 | 151.24120 | 546 ft | 126 kts | 209° |
| 2026-04-12 05:54 | -34.02975 | 151.23655 | 489 ft | 129 kts | 213° |
| 2026-04-12 05:54 | -34.03739 | 151.23195 | 622 ft | 121 kts | 213° |
| 2026-04-12 05:54 | -34.04491 | 151.22653 | 513 ft | 129 kts | 227° |
| 2026-04-12 05:54 | -34.04794 | 151.21737 | 385 ft | 114 kts | 274° |
| 2026-04-12 05:55 | -34.04518 | 151.20825 | 323 ft | 117 kts | 281° |
| 2026-04-12 05:55 | -34.04291 | 151.19905 | 314 ft | 115 kts | 284° |
| 2026-04-12 05:55 | -34.03798 | 151.19107 | 250 ft | 113 kts | 300° |
| 2026-04-12 05:55 | -34.03653 | 151.18235 | 167 ft | 102 kts | 260° |
| 2026-04-12 05:56 | -34.03823 | 151.17393 | 149 ft | 106 kts | 248° |
| 2026-04-12 05:56 | -34.04192 | 151.16692 | 203 ft | 100 kts | 234° |
| 2026-04-12 05:56 | -34.04596 | 151.16228 | 237 ft | 103 kts | 225° |
| 2026-04-12 05:59 | -34.05007 | 151.15984 | 227 ft | 105 kts | 200° |
| 2026-04-12 05:59 | -34.05788 | 151.15987 | 263 ft | 115 kts | 186° |
| 2026-04-12 05:59 | -34.06624 | 151.16009 | 304 ft | 119 kts | 192° |
| 2026-04-12 06:00 | -34.07207 | 151.15694 | 307 ft | 102 kts | 237° |
| 2026-04-12 06:02 | -34.07310 | 151.15439 | 291 ft | 104 kts | 247° |
| 2026-04-12 06:02 | -34.07388 | 151.14580 | 294 ft | 107 kts | 275° |
| 2026-04-12 06:03 | -34.07163 | 151.14043 | 350 ft | 112 kts | 297° |
| 2026-04-12 06:03 | -34.06898 | 151.13639 | 398 ft | 119 kts | 296° |
| 2026-04-12 06:03 | -34.06712 | 151.13287 | 374 ft | 119 kts | 290° |
| 2026-04-12 06:03 | -34.06526 | 151.12664 | 367 ft | 114 kts | 272° |
| 2026-04-12 06:04 | -34.06094 | 151.11891 | 472 ft | 122 kts | 302° |
| 2026-04-12 06:04 | -34.05654 | 151.11015 | 479 ft | 126 kts | 291° |
| 2026-04-12 06:04 | -34.05219 | 151.10126 | 493 ft | 117 kts | 286° |
| 2026-04-12 06:04 | -34.04946 | 151.09209 | 484 ft | 112 kts | 279° |
| 2026-04-12 06:05 | -34.04637 | 151.08363 | 533 ft | 114 kts | 298° |
| 2026-04-12 06:06 | -34.04451 | 151.08135 | 555 ft | 119 kts | 305° |
| 2026-04-12 06:06 | -34.04034 | 151.07315 | 562 ft | 111 kts | 275° |
| 2026-04-12 06:06 | -34.03908 | 151.06335 | 587 ft | 126 kts | 280° |
| 2026-04-12 06:07 | -34.03636 | 151.05370 | 615 ft | 119 kts | 285° |
| 2026-04-12 06:07 | -34.03166 | 151.04531 | 730 ft | 123 kts | 297° |
| 2026-04-12 06:07 | -34.02703 | 151.03657 | 692 ft | 128 kts | 293° |
| 2026-04-12 06:07 | -34.02320 | 151.02711 | 680 ft | 127 kts | 290° |
| 2026-04-12 06:08 | -34.01934 | 151.01780 | 725 ft | 127 kts | 294° |
| 2026-04-12 06:08 | -34.01527 | 151.00868 | 664 ft | 121 kts | 287° |
| 2026-04-12 06:08 | -34.01203 | 150.99964 | 709 ft | 120 kts | 286° |
| 2026-04-12 06:08 | -34.00915 | 150.99027 | 726 ft | 117 kts | 280° |
| 2026-04-12 06:09 | -34.00787 | 150.98025 | 636 ft | 121 kts | 270° |
| 2026-04-12 06:09 | -34.00627 | 150.97205 | 635 ft | 91 kts | 284° |
| 2026-04-12 06:09 | -34.00299 | 150.96563 | 583 ft | 85 kts | 297° |
| 2026-04-12 06:09 | -34.00010 | 150.96049 | 456 ft | 61 kts | 295° |
| 2026-04-12 06:10 | -33.99828 | 150.95696 | 388 ft | 31 kts | 291° |
| 2026-04-12 06:10 | -33.99765 | 150.95575 | 340 ft | 11 kts | 303° |
| 2026-04-12 06:10 | -33.99723 | 150.95500 | 313 ft | 14 kts | 304° |
| 2026-04-12 06:10 | -33.99651 | 150.95372 | 287 ft | 17 kts | 298° |
| 2026-04-12 06:11 | -33.99601 | 150.95271 | 266 ft | 11 kts | 312° |
| 2026-04-12 06:11 | -33.99571 | 150.95247 | 263 ft | 16 kts | 355° |
| 2026-04-12 06:11 | -33.99569 | 150.95247 | 257 ft | 17 kts | 357° |
| 2026-04-12 06:11 | -33.99545 | 150.95255 | 266 ft | 5 kts | 39° |
| 2026-04-12 06:12 | -33.99531 | 150.95265 | 260 ft | 1 kts | 27° |
| 2026-04-12 06:12 | -33.99531 | 150.95266 | 258 ft | 0 kts | 28° |
| 2026-04-12 06:13 | -33.99529 | 150.95267 | 256 ft | 1 kts | 33° |
| 2026-04-12 06:13 | -33.99528 | 150.95266 | 255 ft | 0 kts | 42° |
| 2026-04-12 06:14 | -33.99528 | 150.95267 | 253 ft | 0 kts | 43° |
| 2026-04-12 06:14 | -33.99519 | 150.95272 | 252 ft | 5 kts | 333° |
| 2026-04-12 06:14 | -33.99502 | 150.95246 | 252 ft | 1 kts | 304° |
| 2026-04-12 06:15 | -33.99492 | 150.95230 | 251 ft | 6 kts | 333° |
| 2026-04-12 06:15 | -33.99471 | 150.95248 | 250 ft | 4 kts | 110° |
| 2026-04-12 06:15 | -33.99482 | 150.95268 | 250 ft | 0 kts | 123° |